sensor_id;sensor_type;location;lat;lon;timestamp;temperature;humidity
11136;DHT22;5622;50.840;4.948;2023-08-07T00:01:05;12.40;99.90
11136;DHT22;5622;50.840;4.948;2023-08-07T00:03:33;12.50;99.90
11136;DHT22;5622;50.840;4.948;2023-08-07T00:06:01;12.50;99.90
11136;DHT22;5622;50.840;4.948;2023-08-07T00:08:29;12.40;99.90
11136;DHT22;5622;50.840;4.948;2023-08-07T00:11:04;12.50;99.90
11136;DHT22;5622;50.840;4.948;2023-08-07T00:13:32;12.50;99.90
11136;DHT22;5622;50.840;4.948;2023-08-07T00:15:59;12.40;99.90
11136;DHT22;5622;50.840;4.948;2023-08-07T00:18:26;12.40;99.90
11136;DHT22;5622;50.840;4.948;2023-08-07T00:20:53;12.40;99.90
11136;DHT22;5622;50.840;4.948;2023-08-07T00:23:20;12.40;99.90
11136;DHT22;5622;50.840;4.948;2023-08-07T00:25:49;12.40;99.90
11136;DHT22;5622;50.840;4.948;2023-08-07T00:28:16;12.40;99.90
11136;DHT22;5622;50.840;4.948;2023-08-07T00:30:43;12.40;99.90
11136;DHT22;5622;50.840;4.948;2023-08-07T00:33:10;12.40;99.90
11136;DHT22;5622;50.840;4.948;2023-08-07T00:35:38;12.40;99.90
11136;DHT22;5622;50.840;4.948;2023-08-07T00:38:05;12.40;99.90
11136;DHT22;5622;50.840;4.948;2023-08-07T00:40:39;12.40;99.90
11136;DHT22;5622;50.840;4.948;2023-08-07T00:43:08;12.40;99.90
11136;DHT22;5622;50.840;4.948;2023-08-07T00:45:38;12.40;99.90
11136;DHT22;5622;50.840;4.948;2023-08-07T00:48:07;12.40;99.90
11136;DHT22;5622;50.840;4.948;2023-08-07T00:50:34;12.30;99.90
11136;DHT22;5622;50.840;4.948;2023-08-07T00:53:01;12.40;99.90
11136;DHT22;5622;50.840;4.948;2023-08-07T00:55:29;12.40;99.90
11136;DHT22;5622;50.840;4.948;2023-08-07T00:57:57;12.30;99.90
11136;DHT22;5622;50.840;4.948;2023-08-07T01:00:27;12.30;99.90
11136;DHT22;5622;50.840;4.948;2023-08-07T01:02:55;12.30;99.90
11136;DHT22;5622;50.840;4.948;2023-08-07T01:05:23;12.30;99.90
11136;DHT22;5622;50.840;4.948;2023-08-07T01:07:51;12.20;99.90
11136;DHT22;5622;50.840;4.948;2023-08-07T01:10:25;12.20;99.90
11136;DHT22;5622;50.840;4.948;2023-08-07T01:13:03;12.20;99.90
11136;DHT22;5622;50.840;4.948;2023-08-07T01:15:33;12.20;99.90
11136;DHT22;5622;50.840;4.948;2023-08-07T01:18:02;12.20;99.90
11136;DHT22;5622;50.840;4.948;2023-08-07T01:20:30;12.20;99.90
11136;DHT22;5622;50.840;4.948;2023-08-07T01:22:58;12.30;99.90
11136;DHT22;5622;50.840;4.948;2023-08-07T01:25:25;12.30;99.90
11136;DHT22;5622;50.840;4.948;2023-08-07T01:28:00;12.30;99.90
11136;DHT22;5622;50.840;4.948;2023-08-07T01:30:33;12.20;99.90
11136;DHT22;5622;50.840;4.948;2023-08-07T01:33:09;12.30;99.90
11136;DHT22;5622;50.840;4.948;2023-08-07T01:35:42;12.30;99.90
11136;DHT22;5622;50.840;4.948;2023-08-07T01:38:12;12.30;99.90
11136;DHT22;5622;50.840;4.948;2023-08-07T01:40:40;12.30;99.90
11136;DHT22;5622;50.840;4.948;2023-08-07T01:43:08;12.50;99.90
11136;DHT22;5622;50.840;4.948;2023-08-07T01:45:36;12.30;99.90
11136;DHT22;5622;50.840;4.948;2023-08-07T01:48:03;12.30;99.90
11136;DHT22;5622;50.840;4.948;2023-08-07T01:50:30;12.30;99.90
11136;DHT22;5622;50.840;4.948;2023-08-07T01:52:58;12.30;99.90
11136;DHT22;5622;50.840;4.948;2023-08-07T01:55:27;12.20;99.90
11136;DHT22;5622;50.840;4.948;2023-08-07T01:57:54;12.20;99.90
11136;DHT22;5622;50.840;4.948;2023-08-07T02:00:21;12.20;99.90
11136;DHT22;5622;50.840;4.948;2023-08-07T02:02:49;12.20;99.90
11136;DHT22;5622;50.840;4.948;2023-08-07T02:05:16;12.10;99.90
11136;DHT22;5622;50.840;4.948;2023-08-07T02:07:43;12.10;99.90
11136;DHT22;5622;50.840;4.948;2023-08-07T02:10:10;12.10;99.90
11136;DHT22;5622;50.840;4.948;2023-08-07T02:12:39;12.10;99.90
11136;DHT22;5622;50.840;4.948;2023-08-07T02:15:07;12.00;99.90
11136;DHT22;5622;50.840;4.948;2023-08-07T02:17:35;12.00;99.90
11136;DHT22;5622;50.840;4.948;2023-08-07T02:20:05;12.00;99.90
11136;DHT22;5622;50.840;4.948;2023-08-07T02:22:32;12.00;99.90
11136;DHT22;5622;50.840;4.948;2023-08-07T02:24:59;11.90;99.90
11136;DHT22;5622;50.840;4.948;2023-08-07T02:27:26;11.90;99.90
11136;DHT22;5622;50.840;4.948;2023-08-07T02:29:55;12.00;99.90
11136;DHT22;5622;50.840;4.948;2023-08-07T02:32:22;12.00;99.90
11136;DHT22;5622;50.840;4.948;2023-08-07T02:34:49;12.00;99.90
11136;DHT22;5622;50.840;4.948;2023-08-07T02:37:16;12.00;99.90
11136;DHT22;5622;50.840;4.948;2023-08-07T02:39:44;12.00;99.90
11136;DHT22;5622;50.840;4.948;2023-08-07T02:42:11;12.00;99.90
11136;DHT22;5622;50.840;4.948;2023-08-07T02:44:38;12.00;99.90
11136;DHT22;5622;50.840;4.948;2023-08-07T02:47:07;12.00;99.90
11136;DHT22;5622;50.840;4.948;2023-08-07T02:49:34;11.90;99.90
11136;DHT22;5622;50.840;4.948;2023-08-07T02:52:01;12.00;99.90
11136;DHT22;5622;50.840;4.948;2023-08-07T02:54:28;11.90;99.90
11136;DHT22;5622;50.840;4.948;2023-08-07T02:56:56;11.90;99.90
11136;DHT22;5622;50.840;4.948;2023-08-07T02:59:24;11.90;99.90
11136;DHT22;5622;50.840;4.948;2023-08-07T03:01:51;11.90;99.90
11136;DHT22;5622;50.840;4.948;2023-08-07T03:04:19;11.90;99.90
11136;DHT22;5622;50.840;4.948;2023-08-07T03:06:46;11.90;99.90
11136;DHT22;5622;50.840;4.948;2023-08-07T03:09:13;11.80;99.90
11136;DHT22;5622;50.840;4.948;2023-08-07T03:11:41;11.80;99.90
11136;DHT22;5622;50.840;4.948;2023-08-07T03:14:08;11.80;99.90
11136;DHT22;5622;50.840;4.948;2023-08-07T03:16:35;11.80;99.90
11136;DHT22;5622;50.840;4.948;2023-08-07T03:19:02;11.80;99.90
11136;DHT22;5622;50.840;4.948;2023-08-07T03:21:31;11.80;99.90
11136;DHT22;5622;50.840;4.948;2023-08-07T03:23:58;11.80;99.90
11136;DHT22;5622;50.840;4.948;2023-08-07T03:26:25;11.80;99.90
11136;DHT22;5622;50.840;4.948;2023-08-07T03:28:52;11.80;99.90
11136;DHT22;5622;50.840;4.948;2023-08-07T03:31:19;11.80;99.90
11136;DHT22;5622;50.840;4.948;2023-08-07T03:33:46;11.80;99.90
11136;DHT22;5622;50.840;4.948;2023-08-07T03:36:14;11.70;99.90
11136;DHT22;5622;50.840;4.948;2023-08-07T03:38:42;11.70;99.90
11136;DHT22;5622;50.840;4.948;2023-08-07T03:41:09;11.80;99.90
11136;DHT22;5622;50.840;4.948;2023-08-07T03:43:36;11.70;99.90
11136;DHT22;5622;50.840;4.948;2023-08-07T03:46:04;11.70;99.90
11136;DHT22;5622;50.840;4.948;2023-08-07T03:48:31;11.70;99.90
11136;DHT22;5622;50.840;4.948;2023-08-07T03:51:02;11.70;99.90
11136;DHT22;5622;50.840;4.948;2023-08-07T03:53:30;11.70;99.90
11136;DHT22;5622;50.840;4.948;2023-08-07T03:55:58;11.70;99.90
11136;DHT22;5622;50.840;4.948;2023-08-07T03:58:26;11.70;99.90
11136;DHT22;5622;50.840;4.948;2023-08-07T04:00:53;11.80;99.90
11136;DHT22;5622;50.840;4.948;2023-08-07T04:03:20;11.80;99.90
11136;DHT22;5622;50.840;4.948;2023-08-07T04:05:51;11.70;99.90
11136;DHT22;5622;50.840;4.948;2023-08-07T04:08:19;11.80;99.90
11136;DHT22;5622;50.840;4.948;2023-08-07T04:10:59;11.80;99.90
11136;DHT22;5622;50.840;4.948;2023-08-07T04:13:27;11.80;99.90
11136;DHT22;5622;50.840;4.948;2023-08-07T04:15:54;11.90;99.90
11136;DHT22;5622;50.840;4.948;2023-08-07T04:18:22;11.90;99.90
11136;DHT22;5622;50.840;4.948;2023-08-07T04:20:49;11.90;99.90
11136;DHT22;5622;50.840;4.948;2023-08-07T04:23:18;11.90;99.90
11136;DHT22;5622;50.840;4.948;2023-08-07T04:25:45;11.90;99.90
11136;DHT22;5622;50.840;4.948;2023-08-07T04:28:15;11.90;99.90
11136;DHT22;5622;50.840;4.948;2023-08-07T04:30:43;11.90;99.90
11136;DHT22;5622;50.840;4.948;2023-08-07T04:33:11;11.90;99.90
11136;DHT22;5622;50.840;4.948;2023-08-07T04:35:38;11.90;99.90
11136;DHT22;5622;50.840;4.948;2023-08-07T04:38:05;11.90;99.90
11136;DHT22;5622;50.840;4.948;2023-08-07T04:40:32;12.00;99.90
11136;DHT22;5622;50.840;4.948;2023-08-07T04:43:00;12.00;99.90
11136;DHT22;5622;50.840;4.948;2023-08-07T04:45:29;11.90;99.90
11136;DHT22;5622;50.840;4.948;2023-08-07T04:47:56;12.00;99.90
11136;DHT22;5622;50.840;4.948;2023-08-07T04:50:23;12.10;99.90
11136;DHT22;5622;50.840;4.948;2023-08-07T04:52:50;12.10;99.90
11136;DHT22;5622;50.840;4.948;2023-08-07T04:55:19;12.10;99.90
11136;DHT22;5622;50.840;4.948;2023-08-07T04:57:47;12.10;99.90
11136;DHT22;5622;50.840;4.948;2023-08-07T05:00:16;12.10;99.90
11136;DHT22;5622;50.840;4.948;2023-08-07T05:02:45;12.10;99.90
11136;DHT22;5622;50.840;4.948;2023-08-07T05:05:13;12.20;99.90
11136;DHT22;5622;50.840;4.948;2023-08-07T05:07:41;12.20;99.90
11136;DHT22;5622;50.840;4.948;2023-08-07T05:10:09;12.30;99.90
11136;DHT22;5622;50.840;4.948;2023-08-07T05:12:36;12.20;99.90
11136;DHT22;5622;50.840;4.948;2023-08-07T05:15:04;12.20;99.90
11136;DHT22;5622;50.840;4.948;2023-08-07T05:17:31;12.30;99.90
11136;DHT22;5622;50.840;4.948;2023-08-07T05:20:00;12.30;99.90
11136;DHT22;5622;50.840;4.948;2023-08-07T05:22:27;12.30;99.90
11136;DHT22;5622;50.840;4.948;2023-08-07T05:24:54;12.30;99.90
11136;DHT22;5622;50.840;4.948;2023-08-07T05:27:21;12.30;99.90
11136;DHT22;5622;50.840;4.948;2023-08-07T05:29:48;12.40;99.90
11136;DHT22;5622;50.840;4.948;2023-08-07T05:32:15;12.40;99.90
11136;DHT22;5622;50.840;4.948;2023-08-07T05:34:43;12.40;99.90
11136;DHT22;5622;50.840;4.948;2023-08-07T05:37:12;12.40;99.90
11136;DHT22;5622;50.840;4.948;2023-08-07T05:39:39;12.40;99.90
11136;DHT22;5622;50.840;4.948;2023-08-07T05:42:06;12.50;99.90
11136;DHT22;5622;50.840;4.948;2023-08-07T05:44:35;12.50;99.90
11136;DHT22;5622;50.840;4.948;2023-08-07T05:47:03;12.50;99.90
11136;DHT22;5622;50.840;4.948;2023-08-07T05:49:30;12.50;99.90
11136;DHT22;5622;50.840;4.948;2023-08-07T05:51:57;12.50;99.90
11136;DHT22;5622;50.840;4.948;2023-08-07T05:54:26;12.50;99.90
11136;DHT22;5622;50.840;4.948;2023-08-07T05:56:53;12.50;99.90
11136;DHT22;5622;50.840;4.948;2023-08-07T05:59:20;12.40;99.90
11136;DHT22;5622;50.840;4.948;2023-08-07T06:01:47;12.50;99.90
11136;DHT22;5622;50.840;4.948;2023-08-07T06:04:14;12.40;99.90
11136;DHT22;5622;50.840;4.948;2023-08-07T06:06:41;12.50;99.90
11136;DHT22;5622;50.840;4.948;2023-08-07T06:09:10;12.60;99.90
11136;DHT22;5622;50.840;4.948;2023-08-07T06:11:39;12.50;99.90
11136;DHT22;5622;50.840;4.948;2023-08-07T06:14:06;12.60;99.90
11136;DHT22;5622;50.840;4.948;2023-08-07T06:16:33;12.60;99.90
11136;DHT22;5622;50.840;4.948;2023-08-07T06:19:01;12.50;99.90
11136;DHT22;5622;50.840;4.948;2023-08-07T06:21:29;12.60;99.90
11136;DHT22;5622;50.840;4.948;2023-08-07T06:23:56;12.60;99.90
11136;DHT22;5622;50.840;4.948;2023-08-07T06:26:23;12.70;99.90
11136;DHT22;5622;50.840;4.948;2023-08-07T06:28:52;12.70;99.90
11136;DHT22;5622;50.840;4.948;2023-08-07T06:31:19;12.80;99.90
11136;DHT22;5622;50.840;4.948;2023-08-07T06:33:46;12.80;99.90
11136;DHT22;5622;50.840;4.948;2023-08-07T06:36:14;12.80;99.90
11136;DHT22;5622;50.840;4.948;2023-08-07T06:38:41;12.90;99.90
11136;DHT22;5622;50.840;4.948;2023-08-07T06:41:08;12.90;99.90
11136;DHT22;5622;50.840;4.948;2023-08-07T06:43:35;12.90;99.90
11136;DHT22;5622;50.840;4.948;2023-08-07T06:46:04;13.00;99.90
11136;DHT22;5622;50.840;4.948;2023-08-07T06:48:32;13.10;99.90
11136;DHT22;5622;50.840;4.948;2023-08-07T06:50:59;13.20;99.90
11136;DHT22;5622;50.840;4.948;2023-08-07T06:53:26;13.20;99.90
11136;DHT22;5622;50.840;4.948;2023-08-07T06:55:53;13.20;99.90
11136;DHT22;5622;50.840;4.948;2023-08-07T06:58:20;13.20;99.90
11136;DHT22;5622;50.840;4.948;2023-08-07T07:00:48;13.30;99.90
11136;DHT22;5622;50.840;4.948;2023-08-07T07:03:16;13.40;99.90
11136;DHT22;5622;50.840;4.948;2023-08-07T07:05:43;13.50;99.90
11136;DHT22;5622;50.840;4.948;2023-08-07T07:08:11;13.50;99.90
11136;DHT22;5622;50.840;4.948;2023-08-07T07:10:38;13.70;99.90
11136;DHT22;5622;50.840;4.948;2023-08-07T07:13:05;13.80;99.90
11136;DHT22;5622;50.840;4.948;2023-08-07T07:15:33;13.90;99.90
11136;DHT22;5622;50.840;4.948;2023-08-07T07:18:01;14.00;99.90
11136;DHT22;5622;50.840;4.948;2023-08-07T07:20:30;14.20;99.90
11136;DHT22;5622;50.840;4.948;2023-08-07T07:22:57;14.40;99.90
11136;DHT22;5622;50.840;4.948;2023-08-07T07:25:27;14.60;99.90
11136;DHT22;5622;50.840;4.948;2023-08-07T07:27:55;14.70;99.90
11136;DHT22;5622;50.840;4.948;2023-08-07T07:30:22;14.90;99.90
11136;DHT22;5622;50.840;4.948;2023-08-07T07:32:50;14.90;99.90
11136;DHT22;5622;50.840;4.948;2023-08-07T07:35:18;15.00;99.90
11136;DHT22;5622;50.840;4.948;2023-08-07T07:37:46;15.10;99.90
11136;DHT22;5622;50.840;4.948;2023-08-07T07:40:14;15.30;99.90
11136;DHT22;5622;50.840;4.948;2023-08-07T07:42:41;15.40;99.90
11136;DHT22;5622;50.840;4.948;2023-08-07T07:45:09;15.60;99.90
11136;DHT22;5622;50.840;4.948;2023-08-07T07:47:36;15.70;99.90
11136;DHT22;5622;50.840;4.948;2023-08-07T07:50:08;16.00;99.90
11136;DHT22;5622;50.840;4.948;2023-08-07T07:52:35;16.20;99.90
11136;DHT22;5622;50.840;4.948;2023-08-07T07:55:05;16.40;99.90
11136;DHT22;5622;50.840;4.948;2023-08-07T07:57:35;17.00;99.90
11136;DHT22;5622;50.840;4.948;2023-08-07T08:00:03;16.50;99.90
11136;DHT22;5622;50.840;4.948;2023-08-07T08:02:36;16.60;99.90
11136;DHT22;5622;50.840;4.948;2023-08-07T08:05:05;16.80;99.90
11136;DHT22;5622;50.840;4.948;2023-08-07T08:07:32;16.80;99.90
11136;DHT22;5622;50.840;4.948;2023-08-07T08:10:00;16.70;99.90
11136;DHT22;5622;50.840;4.948;2023-08-07T08:12:30;16.60;99.90
11136;DHT22;5622;50.840;4.948;2023-08-07T08:14:57;16.60;99.90
11136;DHT22;5622;50.840;4.948;2023-08-07T08:17:32;16.70;99.90
11136;DHT22;5622;50.840;4.948;2023-08-07T08:20:17;16.60;99.90
11136;DHT22;5622;50.840;4.948;2023-08-07T08:22:45;16.70;99.90
11136;DHT22;5622;50.840;4.948;2023-08-07T08:25:13;17.00;99.90
11136;DHT22;5622;50.840;4.948;2023-08-07T08:27:50;17.20;99.90
11136;DHT22;5622;50.840;4.948;2023-08-07T08:30:17;17.10;99.90
11136;DHT22;5622;50.840;4.948;2023-08-07T08:32:47;17.10;99.90
11136;DHT22;5622;50.840;4.948;2023-08-07T08:35:20;17.10;99.90
11136;DHT22;5622;50.840;4.948;2023-08-07T08:37:55;17.20;99.90
11136;DHT22;5622;50.840;4.948;2023-08-07T08:40:31;17.30;99.90
11136;DHT22;5622;50.840;4.948;2023-08-07T08:43:16;17.40;99.90
11136;DHT22;5622;50.840;4.948;2023-08-07T08:45:50;17.20;99.90
11136;DHT22;5622;50.840;4.948;2023-08-07T08:48:22;17.40;99.90
11136;DHT22;5622;50.840;4.948;2023-08-07T08:50:52;17.10;99.90
11136;DHT22;5622;50.840;4.948;2023-08-07T08:53:23;17.30;99.90
11136;DHT22;5622;50.840;4.948;2023-08-07T08:55:52;17.40;99.90
11136;DHT22;5622;50.840;4.948;2023-08-07T08:58:38;17.50;99.90
11136;DHT22;5622;50.840;4.948;2023-08-07T09:01:24;17.60;99.90
11136;DHT22;5622;50.840;4.948;2023-08-07T09:04:26;17.70;99.90
11136;DHT22;5622;50.840;4.948;2023-08-07T09:07:14;17.80;99.90
11136;DHT22;5622;50.840;4.948;2023-08-07T09:09:44;17.60;99.90
11136;DHT22;5622;50.840;4.948;2023-08-07T09:12:16;17.50;99.90
11136;DHT22;5622;50.840;4.948;2023-08-07T09:14:57;17.40;99.90
11136;DHT22;5622;50.840;4.948;2023-08-07T09:17:28;17.30;99.90
11136;DHT22;5622;50.840;4.948;2023-08-07T09:20:02;17.40;99.90
11136;DHT22;5622;50.840;4.948;2023-08-07T09:22:52;17.80;99.90
11136;DHT22;5622;50.840;4.948;2023-08-07T09:25:29;18.10;99.90
11136;DHT22;5622;50.840;4.948;2023-08-07T09:28:13;18.20;99.90
11136;DHT22;5622;50.840;4.948;2023-08-07T09:30:47;18.20;99.90
11136;DHT22;5622;50.840;4.948;2023-08-07T09:33:14;17.90;99.90
11136;DHT22;5622;50.840;4.948;2023-08-07T09:36:02;17.90;99.90
11136;DHT22;5622;50.840;4.948;2023-08-07T09:38:33;18.10;99.90
11136;DHT22;5622;50.840;4.948;2023-08-07T09:41:18;18.00;99.90
11136;DHT22;5622;50.840;4.948;2023-08-07T09:43:46;17.90;99.90
11136;DHT22;5622;50.840;4.948;2023-08-07T09:46:17;17.90;99.90
11136;DHT22;5622;50.840;4.948;2023-08-07T09:48:49;18.00;99.90
11136;DHT22;5622;50.840;4.948;2023-08-07T09:51:17;18.40;99.90
11136;DHT22;5622;50.840;4.948;2023-08-07T09:53:48;18.50;99.90
11136;DHT22;5622;50.840;4.948;2023-08-07T09:56:24;18.40;99.90
11136;DHT22;5622;50.840;4.948;2023-08-07T09:59:16;18.40;99.90
11136;DHT22;5622;50.840;4.948;2023-08-07T10:01:48;18.00;99.90
11136;DHT22;5622;50.840;4.948;2023-08-07T10:04:17;18.10;99.90
11136;DHT22;5622;50.840;4.948;2023-08-07T10:07:03;18.20;99.90
11136;DHT22;5622;50.840;4.948;2023-08-07T10:09:32;18.40;99.90
11136;DHT22;5622;50.840;4.948;2023-08-07T10:12:02;18.50;99.90
11136;DHT22;5622;50.840;4.948;2023-08-07T10:14:52;18.50;99.90
11136;DHT22;5622;50.840;4.948;2023-08-07T10:17:49;18.40;99.90
11136;DHT22;5622;50.840;4.948;2023-08-07T10:20:37;18.20;99.90
11136;DHT22;5622;50.840;4.948;2023-08-07T10:23:11;18.20;99.90
11136;DHT22;5622;50.840;4.948;2023-08-07T10:25:47;18.10;99.90
11136;DHT22;5622;50.840;4.948;2023-08-07T10:28:31;18.20;99.90
11136;DHT22;5622;50.840;4.948;2023-08-07T10:31:00;17.90;99.90
11136;DHT22;5622;50.840;4.948;2023-08-07T10:33:32;17.90;99.90
11136;DHT22;5622;50.840;4.948;2023-08-07T10:35:59;17.90;99.90
11136;DHT22;5622;50.840;4.948;2023-08-07T10:38:29;17.90;99.90
11136;DHT22;5622;50.840;4.948;2023-08-07T10:41:02;18.00;99.90
11136;DHT22;5622;50.840;4.948;2023-08-07T10:43:38;18.10;99.90
11136;DHT22;5622;50.840;4.948;2023-08-07T10:46:08;18.20;99.90
11136;DHT22;5622;50.840;4.948;2023-08-07T10:48:45;18.40;99.90
11136;DHT22;5622;50.840;4.948;2023-08-07T10:51:14;18.70;99.90
11136;DHT22;5622;50.840;4.948;2023-08-07T10:53:42;18.90;99.90
11136;DHT22;5622;50.840;4.948;2023-08-07T10:56:15;19.00;99.90
11136;DHT22;5622;50.840;4.948;2023-08-07T10:58:50;19.40;99.90
11136;DHT22;5622;50.840;4.948;2023-08-07T11:01:43;19.50;99.90
11136;DHT22;5622;50.840;4.948;2023-08-07T11:04:14;19.80;99.90
11136;DHT22;5622;50.840;4.948;2023-08-07T11:06:46;20.00;99.90
11136;DHT22;5622;50.840;4.948;2023-08-07T11:09:17;20.20;99.90
11136;DHT22;5622;50.840;4.948;2023-08-07T11:15:47;20.70;99.90
11136;DHT22;5622;50.840;4.948;2023-08-07T11:18:15;20.50;99.90
11136;DHT22;5622;50.840;4.948;2023-08-07T11:20:48;20.50;99.90
11136;DHT22;5622;50.840;4.948;2023-08-07T11:23:23;20.40;99.90
11136;DHT22;5622;50.840;4.948;2023-08-07T11:25:54;20.00;99.90
11136;DHT22;5622;50.840;4.948;2023-08-07T11:28:23;20.00;99.90
11136;DHT22;5622;50.840;4.948;2023-08-07T11:30:51;19.80;99.90
11136;DHT22;5622;50.840;4.948;2023-08-07T11:33:21;19.60;99.90
11136;DHT22;5622;50.840;4.948;2023-08-07T11:35:51;19.40;99.90
11136;DHT22;5622;50.840;4.948;2023-08-07T11:38:31;19.30;99.90
11136;DHT22;5622;50.840;4.948;2023-08-07T11:41:00;19.10;99.90
11136;DHT22;5622;50.840;4.948;2023-08-07T11:43:28;19.00;99.90
11136;DHT22;5622;50.840;4.948;2023-08-07T11:45:57;18.90;99.90
11136;DHT22;5622;50.840;4.948;2023-08-07T11:48:26;18.80;99.90
11136;DHT22;5622;50.840;4.948;2023-08-07T11:50:56;18.70;99.90
11136;DHT22;5622;50.840;4.948;2023-08-07T11:53:25;18.80;99.90
11136;DHT22;5622;50.840;4.948;2023-08-07T11:55:53;18.80;99.90
11136;DHT22;5622;50.840;4.948;2023-08-07T11:58:21;18.70;99.90
11136;DHT22;5622;50.840;4.948;2023-08-07T12:00:49;18.70;99.90
11136;DHT22;5622;50.840;4.948;2023-08-07T12:03:30;18.70;99.90
11136;DHT22;5622;50.840;4.948;2023-08-07T12:06:03;18.70;99.90
11136;DHT22;5622;50.840;4.948;2023-08-07T12:08:34;18.90;99.90
11136;DHT22;5622;50.840;4.948;2023-08-07T12:11:02;18.80;99.90
11136;DHT22;5622;50.840;4.948;2023-08-07T12:13:31;18.90;99.90
11136;DHT22;5622;50.840;4.948;2023-08-07T12:16:01;18.90;99.90
11136;DHT22;5622;50.840;4.948;2023-08-07T12:18:31;19.00;99.90
11136;DHT22;5622;50.840;4.948;2023-08-07T12:21:01;18.90;99.90
11136;DHT22;5622;50.840;4.948;2023-08-07T12:23:29;19.00;99.90
11136;DHT22;5622;50.840;4.948;2023-08-07T12:25:56;19.00;99.90
11136;DHT22;5622;50.840;4.948;2023-08-07T12:28:23;19.00;99.90
11136;DHT22;5622;50.840;4.948;2023-08-07T12:30:51;19.00;99.90
11136;DHT22;5622;50.840;4.948;2023-08-07T12:33:19;19.10;99.90
11136;DHT22;5622;50.840;4.948;2023-08-07T12:35:46;19.10;99.90
11136;DHT22;5622;50.840;4.948;2023-08-07T12:38:15;19.00;99.90
11136;DHT22;5622;50.840;4.948;2023-08-07T12:40:45;19.00;99.90
11136;DHT22;5622;50.840;4.948;2023-08-07T12:43:13;19.10;99.90
11136;DHT22;5622;50.840;4.948;2023-08-07T12:45:41;19.00;99.90
11136;DHT22;5622;50.840;4.948;2023-08-07T12:48:08;19.00;99.90
11136;DHT22;5622;50.840;4.948;2023-08-07T12:50:36;18.90;99.90
11136;DHT22;5622;50.840;4.948;2023-08-07T12:53:03;19.00;99.90
11136;DHT22;5622;50.840;4.948;2023-08-07T12:55:32;19.00;99.90
11136;DHT22;5622;50.840;4.948;2023-08-07T12:57:59;19.00;99.90
11136;DHT22;5622;50.840;4.948;2023-08-07T13:00:26;19.00;99.90
11136;DHT22;5622;50.840;4.948;2023-08-07T13:02:53;18.90;99.90
11136;DHT22;5622;50.840;4.948;2023-08-07T13:05:22;19.00;99.90
11136;DHT22;5622;50.840;4.948;2023-08-07T13:07:50;19.00;99.90
11136;DHT22;5622;50.840;4.948;2023-08-07T13:10:20;18.90;99.90
11136;DHT22;5622;50.840;4.948;2023-08-07T13:12:49;19.00;99.90
11136;DHT22;5622;50.840;4.948;2023-08-07T13:15:17;19.10;99.90
11136;DHT22;5622;50.840;4.948;2023-08-07T13:17:44;19.10;99.90
11136;DHT22;5622;50.840;4.948;2023-08-07T13:20:13;19.10;99.90
11136;DHT22;5622;50.840;4.948;2023-08-07T13:22:41;19.10;99.90
11136;DHT22;5622;50.840;4.948;2023-08-07T13:25:10;19.10;99.90
11136;DHT22;5622;50.840;4.948;2023-08-07T13:27:37;19.10;99.90
11136;DHT22;5622;50.840;4.948;2023-08-07T13:30:08;19.10;99.90
11136;DHT22;5622;50.840;4.948;2023-08-07T13:32:35;19.70;99.90
11136;DHT22;5622;50.840;4.948;2023-08-07T13:35:03;19.30;99.90
11136;DHT22;5622;50.840;4.948;2023-08-07T13:37:30;19.30;99.90
11136;DHT22;5622;50.840;4.948;2023-08-07T13:39:59;19.40;99.90
11136;DHT22;5622;50.840;4.948;2023-08-07T13:42:26;19.50;99.90
11136;DHT22;5622;50.840;4.948;2023-08-07T13:44:54;19.50;99.90
11136;DHT22;5622;50.840;4.948;2023-08-07T13:47:23;19.60;99.90
11136;DHT22;5622;50.840;4.948;2023-08-07T13:49:51;19.70;99.90
11136;DHT22;5622;50.840;4.948;2023-08-07T13:52:19;19.70;99.90
11136;DHT22;5622;50.840;4.948;2023-08-07T13:54:46;19.70;99.90
11136;DHT22;5622;50.840;4.948;2023-08-07T13:57:13;19.60;99.90
11136;DHT22;5622;50.840;4.948;2023-08-07T13:59:41;19.60;99.90
11136;DHT22;5622;50.840;4.948;2023-08-07T14:02:08;19.50;99.90
11136;DHT22;5622;50.840;4.948;2023-08-07T14:04:37;19.50;99.90
11136;DHT22;5622;50.840;4.948;2023-08-07T14:07:04;19.40;99.90
11136;DHT22;5622;50.840;4.948;2023-08-07T14:09:32;19.30;99.90
11136;DHT22;5622;50.840;4.948;2023-08-07T14:11:59;19.30;99.90
11136;DHT22;5622;50.840;4.948;2023-08-07T14:14:26;19.10;99.90
11136;DHT22;5622;50.840;4.948;2023-08-07T14:16:53;19.10;99.90
11136;DHT22;5622;50.840;4.948;2023-08-07T14:19:23;19.00;99.90
11136;DHT22;5622;50.840;4.948;2023-08-07T14:21:51;19.00;99.90
11136;DHT22;5622;50.840;4.948;2023-08-07T14:24:19;19.00;99.90
11136;DHT22;5622;50.840;4.948;2023-08-07T14:26:46;19.00;99.90
11136;DHT22;5622;50.840;4.948;2023-08-07T14:29:13;19.10;99.90
11136;DHT22;5622;50.840;4.948;2023-08-07T14:31:40;19.10;99.90
11136;DHT22;5622;50.840;4.948;2023-08-07T14:34:07;19.10;99.90
11136;DHT22;5622;50.840;4.948;2023-08-07T14:36:36;19.10;99.90
11136;DHT22;5622;50.840;4.948;2023-08-07T14:39:04;19.10;99.90
11136;DHT22;5622;50.840;4.948;2023-08-07T14:41:32;19.10;99.90
11136;DHT22;5622;50.840;4.948;2023-08-07T14:43:59;19.10;99.90
11136;DHT22;5622;50.840;4.948;2023-08-07T14:46:26;19.10;99.90
11136;DHT22;5622;50.840;4.948;2023-08-07T14:48:53;19.10;99.90
11136;DHT22;5622;50.840;4.948;2023-08-07T14:51:21;19.00;99.90
11136;DHT22;5622;50.840;4.948;2023-08-07T14:53:48;19.00;99.90
11136;DHT22;5622;50.840;4.948;2023-08-07T14:56:16;19.00;99.90
11136;DHT22;5622;50.840;4.948;2023-08-07T14:58:44;19.00;99.90
11136;DHT22;5622;50.840;4.948;2023-08-07T15:01:11;19.10;99.90
11136;DHT22;5622;50.840;4.948;2023-08-07T15:03:38;19.10;99.90
11136;DHT22;5622;50.840;4.948;2023-08-07T15:06:05;19.10;99.90
11136;DHT22;5622;50.840;4.948;2023-08-07T15:08:32;19.10;99.90
11136;DHT22;5622;50.840;4.948;2023-08-07T15:10:59;19.20;99.90
11136;DHT22;5622;50.840;4.948;2023-08-07T15:13:28;19.30;99.90
11136;DHT22;5622;50.840;4.948;2023-08-07T15:15:55;19.30;99.90
11136;DHT22;5622;50.840;4.948;2023-08-07T15:18:22;19.40;99.90
11136;DHT22;5622;50.840;4.948;2023-08-07T15:20:50;19.40;99.90
11136;DHT22;5622;50.840;4.948;2023-08-07T15:23:17;19.50;99.90
11136;DHT22;5622;50.840;4.948;2023-08-07T15:25:44;19.50;99.90
11136;DHT22;5622;50.840;4.948;2023-08-07T15:28:11;19.60;99.90
11136;DHT22;5622;50.840;4.948;2023-08-07T15:30:40;19.60;99.90
11136;DHT22;5622;50.840;4.948;2023-08-07T15:33:13;19.60;99.90
11136;DHT22;5622;50.840;4.948;2023-08-07T15:35:40;19.70;99.90
11136;DHT22;5622;50.840;4.948;2023-08-07T15:38:08;19.60;99.90
11136;DHT22;5622;50.840;4.948;2023-08-07T15:40:37;19.60;99.90
11136;DHT22;5622;50.840;4.948;2023-08-07T15:43:05;19.60;99.90
11136;DHT22;5622;50.840;4.948;2023-08-07T15:45:32;19.50;99.90
11136;DHT22;5622;50.840;4.948;2023-08-07T15:48:00;19.40;99.90
11136;DHT22;5622;50.840;4.948;2023-08-07T15:50:28;19.30;99.90
11136;DHT22;5622;50.840;4.948;2023-08-07T15:52:56;19.20;99.90
11136;DHT22;5622;50.840;4.948;2023-08-07T15:55:25;19.10;99.90
11136;DHT22;5622;50.840;4.948;2023-08-07T15:57:52;19.10;99.90
11136;DHT22;5622;50.840;4.948;2023-08-07T16:00:19;19.10;99.90
11136;DHT22;5622;50.840;4.948;2023-08-07T16:02:46;19.10;99.90